Latest Weather Observations for Winton

IDQ60801

Issued at 7:05 pm EST Friday 28 November 2014 (issued every 30 minutes, with the page automatically refreshed every 10 minutes)

About weather observations | Map of weather stations | Latest weather observations for QLD | Other Formats
Station Details ID: 037039 Name: WINTON AIRPORT Lat: -22.36 Lon: 143.08 Height: 192.2 m
Data from the previous 72 hours. | See also: Recent months at Winton
Date/Time
EST
Temp
°C
App
Temp
°C
Dew
Point
Rel
Hum
%
Delta-T
°C
Wind Press
QNH
hPa
Press
MSL
hPa
Rain
since 9 am
mm
Dir
 
Spd
km/h
Gust
km/h
Spd
kts
Gust
kts
28/07:00pm 34.9 31.7 10.0 22 14.5 E 17 22 9 12 1008.3 1007.0 0.0
28/06:30pm 35.7 32.1 10.0 21 15.1 ENE 19 26 10 14 1007.8 1006.5 0.0
28/06:00pm 36.7 32.6 10.1 20 15.7 E 22 32 12 17 1007.7 1006.4 0.0
28/05:30pm 36.8 33.8 9.4 19 15.9 ENE 15 26 8 14 1007.6 1006.2 0.0
28/05:00pm 37.9 34.4 10.3 19 16.4 E 19 30 10 16 1007.4 1006.0 0.0
28/04:30pm 37.5 33.8 10.0 19 16.2 ENE 20 30 11 16 1007.5 1006.1 0.0
28/04:00pm 38.3 35.4 9.8 18 16.8 E 15 32 8 17 1007.7 1006.4 0.0
28/03:30pm 38.4 34.5 10.7 19 16.5 E 22 35 12 19 1008.1 1006.8 0.0
28/03:00pm 37.6 33.9 10.0 19 16.3 ESE 20 32 11 17 1008.5 1007.2 0.0
28/02:30pm 37.7 34.8 10.9 20 16.0 E 17 32 9 17 1008.9 1007.6 0.0
28/02:00pm 38.8 34.8 11.8 20 16.4 E 24 44 13 24 1009.2 1007.9 0.0
28/01:30pm 37.7 34.8 10.9 20 16.0 ESE 17 26 9 14 1009.7 1008.4 0.0
28/01:00pm 37.6 34.3 10.8 20 16.0 NNE 19 35 10 19 1010.1 1008.8 0.0
28/12:30pm 37.3 33.5 11.3 21 15.6 NE 22 32 12 17 1010.4 1009.1 0.0
28/12:00pm 37.0 33.6 12.4 23 15.0 NE 22 28 12 15 1011.1 1009.7 0.0
28/11:30am 35.5 32.7 12.5 25 13.9 ENE 19 30 10 16 1011.3 1009.9 0.0
28/11:00am 35.4 33.7 15.7 31 12.5 E 19 24 10 13 1011.8 1010.4 0.0
28/10:30am 33.5 31.9 15.9 34 11.1 NNE 19 28 10 15 1012.2 1010.8 0.0
28/10:00am 32.6 30.8 16.0 36 10.5 NE 20 28 11 15 1012.4 1011.1 0.0
28/09:30am 31.6 29.7 16.7 40 9.5 NE 22 30 12 16 1012.5 1011.2 0.0
28/09:00am 30.6 30.2 18.0 47 8.1 NE 17 28 9 15 1012.5 1011.2 2.0
28/08:30am 28.8 29.2 18.9 55 6.4 E 15 20 8 11 1012.8 1011.5 1.8
28/08:00am 27.1 28.7 20.7 68 4.2 E 13 17 7 9 1012.6 1011.3 1.8
28/07:30am 25.1 26.6 20.6 76 3.0 ESE 13 17 7 9 1012.6 1011.3 1.8
28/07:00am 24.5 26.2 20.2 77 2.8 E 11 13 6 7 1012.3 1010.9 1.8
28/06:30am 24.2 26.2 19.9 77 2.8 E 9 13 5 7 1011.9 1010.5 1.8
28/06:00am 24.1 26.1 20.0 78 2.7 E 9 13 5 7 1011.8 1010.4 1.8
28/05:30am 23.7 25.9 20.4 82 2.2 E 9 11 5 6 1011.3 1009.9 1.8
28/05:00am 23.8 25.9 20.1 80 2.4 E 9 11 5 6 1010.8 1009.4 1.8
28/04:30am 24.1 26.3 19.6 76 2.9 ENE 7 9 4 5 1010.2 1008.9 1.8
28/04:00am 24.7 26.3 19.1 71 3.6 ENE 9 13 5 7 1010.0 1008.7 1.8
28/03:30am 24.5 26.3 19.6 74 3.2 E 9 9 5 5 1009.8 1008.5 1.8
28/03:00am 24.3 26.8 20.2 78 2.7 E 7 11 4 6 1009.7 1008.4 1.8
28/02:30am 24.1 26.9 20.4 80 2.4 ENE 6 6 3 3 1009.6 1008.3 1.8
28/02:00am 23.9 27.3 20.2 80 2.4 S 2 4 1 2 1010.0 1008.7 1.8
28/01:30am 23.8 26.7 19.9 79 2.5 S 4 6 2 3 1010.3 1009.0 1.8
28/01:00am 23.6 26.0 19.7 79 2.5 S 6 6 3 3 1011.1 1009.7 1.8
28/12:30am 23.9 24.7 19.8 78 2.7 SE 15 17 8 9 1011.5 1010.1 1.8
28/12:00am 23.4 24.2 19.8 80 2.3 ESE 15 20 8 11 1012.2 1010.8 1.8
 
Date/Time
EST
Temp
°C
App
Temp
°C
Dew
Point
Rel
Hum
%
Delta-T
°C
Wind Press
QNH
hPa
Press
MSL
hPa
Rain
since 9 am
mm
Dir
 
Spd
km/h
Gust
km/h
Spd
kts
Gust
kts
27/11:30pm 24.0 22.9 19.5 76 2.9 SE 24 32 13 17 1012.8 1011.5 1.8
27/11:00pm 24.3 23.0 19.8 76 2.9 SE 26 35 14 19 1013.0 1011.7 1.8
27/10:30pm 24.9 24.2 20.2 75 3.1 SE 24 32 13 17 1012.8 1011.5 1.8
27/10:00pm 24.8 26.3 20.5 77 2.8 SE 13 17 7 9 1012.7 1011.4 1.8
27/09:30pm 25.5 29.8 22.0 81 2.4 E 2 6 1 3 1012.3 1010.9 1.8
27/09:00pm 24.9 27.9 20.8 78 2.7 N 6 9 3 5 1011.9 1010.5 1.8
27/08:30pm 24.4 26.0 19.9 76 2.9 WNW 11 15 6 8 1012.1 1010.7 1.4
27/08:00pm 25.2 26.0 19.1 69 3.9 WNW 13 19 7 10 1012.1 1010.7 0.8
27/07:30pm 24.9 25.0 19.1 70 3.7 NW 17 20 9 11 1011.9 1010.5 0.6
27/07:00pm 23.9 24.0 18.3 71 3.6 SSW 15 20 8 11 1012.2 1010.8 0.6
27/06:30pm 25.2 19.8 17.1 60 5.1 S 41 57 22 31 1011.3 1009.9 0.0
27/06:00pm 27.9 23.2 17.7 53 6.5 S 39 59 21 32 1010.7 1009.3 0.0
27/05:56pm 28.4 23.5 17.3 51 7.0 S 39 48 21 26 1010.4 1009.1 0.0
27/05:41pm 31.2 27.3 14.4 36 10.3 SE 28 41 15 22 1010.3 1009.0 0.0
27/05:30pm 35.5 34.8 14.2 28 13.2 NNE 11 17 6 9 1008.7 1007.4 0.0
27/05:00pm 36.0 36.0 15.2 29 13.1 NNE 9 17 5 9 1008.3 1007.0 0.0
27/04:30pm 35.4 36.7 16.2 32 12.3 NNW 4 11 2 6 1008.2 1006.9 0.0
27/04:00pm 33.8 33.2 16.6 35 11.0 W 15 19 8 10 1008.2 1006.9 0.0
27/03:30pm 34.9 34.5 15.3 31 12.3 N 11 15 6 8 1008.6 1007.3 0.0
27/03:00pm 34.5 32.3 14.9 31 12.3 ENE 20 30 11 16 1008.8 1007.5 0.0
27/02:30pm 36.3 36.6 15.9 29 13.0 NNE 9 20 5 11 1008.9 1007.6 0.0
27/02:00pm 36.8 37.6 15.8 28 13.4 N 6 17 3 9 1009.4 1008.1 0.0
27/01:30pm 36.6 35.1 16.2 29 13.1 NE 19 30 10 16 1009.7 1008.4 0.0
27/01:00pm 35.7 35.8 16.4 31 12.4 ENE 11 22 6 12 1010.1 1008.8 0.0
27/12:30pm 35.7 34.5 17.4 33 11.9 NE 20 30 11 16 1010.7 1009.3 0.0
27/12:00pm 35.8 33.6 17.0 32 12.2 NNE 24 33 13 18 1011.1 1009.7 0.0
27/11:30am 36.6 35.7 18.2 34 12.1 NNE 20 33 11 18 1011.7 1010.3 0.0
27/11:00am 35.1 33.1 17.3 34 11.5 NNE 24 37 13 20 1012.0 1010.6 0.0
27/10:30am 33.8 31.8 17.5 38 10.5 NNE 24 37 13 20 1012.4 1011.1 0.0
27/10:00am 33.1 30.4 16.5 37 10.6 NE 26 37 14 20 1012.7 1011.4 0.0
27/09:30am 32.5 30.5 18.3 43 9.3 NNE 26 37 14 20 1012.9 1011.6 0.0
27/09:00am 31.9 29.4 18.8 45 8.6 NE 30 41 16 22 1013.1 1011.8 -
27/08:30am 31.0 28.3 18.4 47 8.2 NE 30 39 16 21 1013.0 1011.7 -
27/08:00am 31.0 27.9 18.4 47 8.2 ENE 32 41 17 22 1012.9 1011.6 -
27/07:30am 30.0 26.7 18.4 49 7.5 ENE 33 43 18 23 1012.7 1011.4 -
27/07:00am 30.4 27.3 18.5 49 7.7 ENE 32 39 17 21 1012.5 1011.2 -
27/06:30am 30.0 28.4 18.4 49 7.5 ENE 24 35 13 19 1012.1 1010.7 -
27/06:00am 28.4 27.7 15.3 45 8.1 E 13 17 7 9 1011.8 1010.4 -
27/05:30am 28.3 27.0 14.9 44 8.2 E 15 20 8 11 1011.6 1010.2 -
27/05:00am 28.4 26.7 14.6 43 8.4 E 17 22 9 12 1011.3 1009.9 -
27/04:30am 28.6 26.2 14.4 41 8.6 ESE 20 26 11 14 1011.0 1009.6 -
27/04:00am 28.8 26.3 14.2 40 8.9 ESE 20 30 11 16 1010.6 1009.2 -
27/03:30am 29.1 26.4 14.5 41 8.9 ESE 22 28 12 15 1010.3 1009.0 -
27/03:00am 29.5 26.4 14.5 40 9.2 ESE 24 33 13 18 1010.0 1008.7 0.0
27/02:30am 30.0 27.3 14.5 38 9.5 ESE 22 30 12 16 1009.8 1008.5 -
27/02:00am 30.5 27.4 14.6 38 9.8 ESE 24 30 13 16 1009.6 1008.3 -
27/01:30am 31.0 27.4 14.2 36 10.3 ESE 26 37 14 20 1009.6 1008.3 -
27/01:00am 31.8 28.5 14.9 36 10.5 ESE 26 33 14 18 1009.8 1008.5 -
27/12:30am 32.2 29.0 15.2 35 10.6 ESE 26 35 14 19 1010.1 1008.8 -
27/12:00am 32.5 28.8 15.9 36 10.5 ESE 30 41 16 22 1010.4 1009.1 -
 
Date/Time
EST
Temp
°C
App
Temp
°C
Dew
Point
Rel
Hum
%
Delta-T
°C
Wind Press
QNH
hPa
Press
MSL
hPa
Rain
since 9 am
mm
Dir
 
Spd
km/h
Gust
km/h
Spd
kts
Gust
kts
26/11:30pm 32.9 28.7 15.8 35 10.8 ESE 32 39 17 21 1010.8 1009.4 -
26/11:00pm 33.1 29.1 15.1 33 11.2 SE 30 39 16 21 1010.4 1009.1 -
26/10:30pm 33.3 29.4 14.4 32 11.7 SSE 28 41 15 22 1010.4 1009.1 -
26/10:00pm 33.3 30.6 13.4 30 12.1 SSE 20 28 11 15 1010.4 1009.1 -
26/09:30pm 33.4 30.9 13.5 30 12.1 SSE 19 24 10 13 1010.0 1008.7 -
26/09:00pm 33.5 31.2 14.0 30 12.0 SSE 19 26 10 14 1009.8 1008.5 0.0
26/08:30pm 33.4 31.0 14.5 32 11.7 S 20 30 11 16 1009.6 1008.3 -
26/08:00pm 33.5 29.8 14.0 30 12.0 S 26 35 14 19 1009.2 1007.9 -
26/07:54pm 33.5 29.5 14.0 30 12.0 S 28 37 15 20 1008.9 1007.6 -
26/07:30pm 35.6 33.1 8.4 19 15.5 E 11 15 6 8 1008.6 1007.3 -
26/07:00pm 36.5 33.5 7.5 17 16.4 E 13 19 7 10 1008.3 1007.0 -
26/06:30pm 37.4 34.1 8.2 17 16.7 E 15 22 8 12 1008.3 1007.0 -
26/06:00pm 37.9 33.6 7.7 16 17.3 E 20 28 11 15 1007.9 1006.6 -
26/05:30pm 38.7 36.2 8.4 16 17.5 E 11 17 6 9 1007.7 1006.4 -
26/05:00pm 38.8 35.4 7.5 15 17.9 ESE 15 26 8 14 1007.5 1006.1 -
26/04:30pm 38.7 36.6 8.4 16 17.5 ESE 9 24 5 13 1007.5 1006.1 -
26/04:00pm 39.2 36.8 8.8 16 17.8 ESE 11 24 6 13 1007.7 1006.4 -
26/03:30pm 39.1 35.2 9.6 17 17.4 ENE 20 39 11 21 1008.0 1006.7 -
26/03:00pm 38.5 34.9 10.0 18 16.9 E 19 24 10 13 1008.2 1006.9 -
26/02:30pm 39.4 36.2 9.8 17 17.5 ENE 17 28 9 15 1008.5 1007.2 -
26/02:00pm 38.9 35.7 11.1 19 16.8 E 19 30 10 16 1009.0 1007.7 -
26/01:30pm 38.1 36.9 12.7 22 15.6 ENE 11 24 6 13 1009.4 1008.1 -
26/01:00pm 37.6 35.9 12.3 22 15.4 NE 13 22 7 12 1009.8 1008.5 -
26/12:30pm 36.8 34.1 13.5 24 14.4 E 20 24 11 13 1010.2 1008.9 -
26/12:00pm 36.6 35.2 14.6 27 13.8 ENE 15 28 8 15 1010.7 1009.3 -
26/11:30am 36.5 35.1 14.5 27 13.8 E 15 26 8 14 1011.3 1009.9 -
26/11:00am 35.8 34.0 14.4 27 13.4 NE 17 28 9 15 1011.7 1010.3 -
26/10:30am 35.7 34.2 15.4 29 12.8 NE 17 30 9 16 1012.0 1010.6 -
26/10:00am 34.4 33.3 15.3 31 12.0 NE 15 26 8 14 1012.3 1010.9 -
26/07:00am 28.5 25.6 16.1 47 7.7 ESE 26 33 14 18 1012.2 1010.8 0.0
26/06:30am 28.0 25.9 16.3 49 7.3 SE 22 32 12 17 1012.2 1010.8 0.0
26/06:00am 27.1 25.9 16.1 51 6.8 SE 17 26 9 14 1011.8 1010.4 0.0
26/05:30am 27.0 24.6 16.3 52 6.7 ESE 24 30 13 16 1011.2 1009.8 0.0
26/05:00am 27.6 25.8 15.9 49 7.3 SE 20 26 11 14 1011.1 1009.7 0.0
26/04:30am 27.8 26.5 15.8 48 7.4 SE 17 24 9 13 1010.7 1009.3 0.0
26/04:00am 28.3 26.5 15.6 46 7.9 SE 19 26 10 14 1010.6 1009.2 0.0
26/03:30am 28.6 26.6 15.5 45 8.1 SSE 20 28 11 15 1010.4 1009.1 0.0
26/03:00am 28.7 26.0 15.6 45 8.1 SSE 24 33 13 18 1010.2 1008.9 0.0
26/02:30am 28.5 26.6 15.8 46 7.9 SSE 20 26 11 14 1010.2 1008.9 0.0
26/02:00am 28.7 25.6 15.6 45 8.1 SE 26 32 14 17 1010.3 1009.0 0.0
26/01:30am 28.9 25.1 15.8 45 8.1 SE 30 39 16 21 1010.2 1008.9 0.0
26/01:00am 29.1 25.2 15.6 44 8.4 SE 30 43 16 23 1010.4 1009.1 0.0
26/12:30am 29.5 25.3 15.6 43 8.6 SE 32 44 17 24 1010.6 1009.2 0.0
26/12:00am 30.0 26.3 16.1 43 8.7 ESE 30 43 16 23 1011.1 1009.7 0.0
 
Date/Time
EST
Temp
°C
App
Temp
°C
Dew
Point
Rel
Hum
%
Delta-T
°C
Wind Press
QNH
hPa
Press
MSL
hPa
Rain
since 9 am
mm
Dir
 
Spd
km/h
Gust
km/h
Spd
kts
Gust
kts
25/11:30pm 30.4 25.8 16.0 41 9.0 ESE 35 44 19 24 1011.2 1009.8 0.0
25/11:00pm 31.1 27.1 16.3 41 9.3 ESE 32 41 17 22 1011.2 1009.8 0.0
25/10:30pm 31.6 27.3 16.0 39 9.8 SE 33 44 18 24 1011.1 1009.7 0.0
25/10:00pm 32.0 26.9 15.9 38 10.1 SE 37 50 20 27 1010.8 1009.4 0.0
25/09:30pm 32.7 27.8 15.2 34 10.9 SE 35 46 19 25 1010.6 1009.2 0.0
25/09:00pm 33.1 27.7 15.1 33 11.2 SE 37 52 20 28 1010.2 1008.9 0.0
25/08:39pm 33.9 29.1 13.9 30 12.3 SE 32 52 17 28 1010.1 1008.8 0.0
25/08:30pm 33.8 29.1 14.3 31 12.1 SSE 32 41 17 22 1009.9 1008.6 0.0
25/08:00pm 33.8 30.4 13.8 30 12.3 SSE 24 33 13 18 1009.6 1008.3 0.0
25/07:30pm 34.6 30.7 13.4 28 13.0 S 26 33 14 18 1009.0 1007.7 0.0

Other Formats:

Comma delimited format used in spreadsheet applications
http://www.bom.gov.au/fwo/IDQ60801/IDQ60801.94342.axf

JavaScript Object Notation format (JSON) in row-major order
http://www.bom.gov.au/fwo/IDQ60801/IDQ60801.94342.json